Time;durP1;ratioP1;P1;durP2;ratioP2;P2;SDS_P1;SDS_P2;PMS_P1;PMS_P2;Temp;Humidity;BMP_temperature;BMP_pressure;BME280_temperature;BME280_humidity;BME280_pressure;Samples;Min_cycle;Max_cycle;Signal;HPM_P1;HPM_P2
2023/05/29 00:01:08;;;;;;;6.28;3.33;;;14.50;99.90;;;13.28;100.00;97732.31;4993247;28;20113;-74
2023/05/29 00:03:36;;;;;;;8.23;3.20;;;14.50;99.90;;;13.24;100.00;97735.94;4991933;28;20061;-74
2023/05/29 00:06:04;;;;;;;5.50;2.47;;;14.40;99.90;;;13.12;100.00;97730.44;4991329;28;20478;-75
2023/05/29 00:08:31;;;;;;;5.95;3.10;;;14.40;99.90;;;12.96;100.00;97732.13;5001711;28;20537;-74
2023/05/29 00:10:58;;;;;;;7.07;3.05;;;14.30;99.90;;;12.96;100.00;97737.34;4992409;28;20132;-74
2023/05/29 00:13:26;;;;;;;8.80;3.20;;;14.20;99.90;;;13.03;100.00;97736.09;5004472;28;20078;-75
2023/05/29 00:15:53;;;;;;;5.45;3.00;;;14.20;99.90;;;13.07;100.00;97729.84;4987653;28;20057;-74
2023/05/29 00:18:20;;;;;;;6.93;3.00;;;14.10;99.90;;;13.08;100.00;97735.88;4984093;28;20045;-74
2023/05/29 00:20:52;;;;;;;6.72;3.25;;;14.20;99.90;;;12.91;100.00;97736.72;4985666;28;20483;-74
2023/05/29 00:23:21;;;;;;;8.32;3.25;;;14.10;99.90;;;12.82;100.00;97738.03;4987962;28;20121;-74
2023/05/29 00:25:48;;;;;;;6.78;3.08;;;14.10;99.90;;;12.75;100.00;97741.84;4989158;28;20046;-74
2023/05/29 00:28:16;;;;;;;6.45;3.42;;;14.00;99.90;;;12.69;100.00;97749.94;4982599;28;20432;-74
2023/05/29 00:30:43;;;;;;;7.85;3.33;;;14.00;99.90;;;12.62;100.00;97744.19;5006766;28;20045;-74
2023/05/29 00:33:10;;;;;;;6.15;2.92;;;13.90;99.90;;;12.68;100.00;97750.84;5002896;28;20450;-74
2023/05/29 00:35:38;;;;;;;7.90;2.88;;;13.90;99.90;;;12.69;100.00;97750.78;4988700;28;20046;-74
2023/05/29 00:38:05;;;;;;;4.38;2.45;;;13.90;99.90;;;12.58;100.00;97747.00;4998231;28;20140;-74
2023/05/29 00:40:32;;;;;;;7.43;3.35;;;13.80;99.90;;;12.39;100.00;97753.09;5009008;28;20045;-74
2023/05/29 00:42:59;;;;;;;6.07;3.13;;;13.80;99.90;;;12.41;100.00;97743.47;5005791;28;20097;-74
2023/05/29 00:45:27;;;;;;;4.75;3.00;;;13.70;99.90;;;12.34;100.00;97739.47;4998033;28;20076;-74
2023/05/29 00:47:54;;;;;;;7.35;3.15;;;13.60;99.90;;;12.25;100.00;97739.91;5002677;28;20160;-74
2023/05/29 00:50:23;;;;;;;7.85;3.17;;;13.50;99.90;;;12.21;100.00;97740.94;5005384;28;20164;-74
2023/05/29 00:52:50;;;;;;;7.18;2.85;;;13.50;99.90;;;12.37;100.00;97734.09;4989639;28;20045;-73
2023/05/29 00:55:18;;;;;;;7.20;3.25;;;13.50;99.90;;;12.11;100.00;97741.38;5011108;28;20054;-74
2023/05/29 00:57:46;;;;;;;5.85;2.97;;;13.50;99.90;;;12.06;100.00;97745.09;5001506;28;20046;-74
2023/05/29 01:00:14;;;;;;;6.72;3.53;;;13.40;99.90;;;11.87;100.00;97751.13;5003674;28;20572;-74
2023/05/29 01:02:44;;;;;;;6.90;3.08;;;13.30;99.90;;;11.84;100.00;97745.22;4997205;28;20050;-74
2023/05/29 01:05:13;;;;;;;6.78;3.15;;;13.20;99.90;;;11.79;100.00;97737.63;4984865;28;20049;-74
2023/05/29 01:07:42;;;;;;;7.45;3.08;;;13.10;99.90;;;11.92;100.00;97746.56;4987595;28;20069;-75
2023/05/29 01:10:10;;;;;;;8.63;3.35;;;13.10;99.90;;;11.83;100.00;97738.31;5006160;28;20214;-74
2023/05/29 01:12:49;;;;;;;7.35;3.28;;;13.10;99.90;;;11.89;100.00;97744.09;4987065;28;20060;-74
2023/05/29 01:15:43;;;;;;;8.27;3.40;;;13.10;99.90;;;11.91;100.00;97731.88;4986591;28;20549;-74
2023/05/29 01:18:41;;;;;;;5.95;3.15;;;13.10;99.90;;;11.77;100.00;97739.44;5002101;28;20066;-74
2023/05/29 01:21:26;;;;;;;8.52;3.85;;;13.00;99.90;;;11.74;100.00;97744.75;4991568;28;20609;-74
2023/05/29 01:24:08;;;;;;;6.13;3.17;;;13.00;99.90;;;11.74;100.00;97742.16;4978518;28;20123;-74
2023/05/29 01:26:54;;;;;;;7.20;3.72;;;13.00;99.90;;;11.78;100.00;97745.47;4985011;28;20096;-74
2023/05/29 01:29:31;;;;;;;5.68;2.97;;;13.00;99.90;;;11.72;100.00;97742.25;4994913;28;20562;-74
2023/05/29 01:32:01;;;;;;;8.27;3.63;;;12.90;99.90;;;11.75;100.00;97743.84;4988591;28;20079;-73
2023/05/29 01:34:29;;;;;;;9.15;3.92;;;12.90;99.90;;;11.61;100.00;97747.06;4989352;28;20612;-74
2023/05/29 01:36:57;;;;;;;8.20;3.40;;;12.90;99.90;;;11.62;100.00;97746.16;4991071;28;20108;-74
2023/05/29 01:39:25;;;;;;;6.72;3.28;;;12.80;99.90;;;11.56;100.00;97743.81;5004091;28;20085;-74
2023/05/29 01:41:53;;;;;;;7.50;3.20;;;12.80;99.90;;;11.41;100.00;97747.09;4988287;28;20077;-74
2023/05/29 01:44:21;;;;;;;6.65;3.00;;;12.70;99.90;;;11.34;100.00;97750.88;4990801;28;20050;-74
2023/05/29 01:46:49;;;;;;;5.70;2.88;;;12.70;99.90;;;11.31;100.00;97751.81;5008941;28;20133;-73
2023/05/29 01:49:17;;;;;;;6.70;3.30;;;12.60;99.90;;;11.26;100.00;97756.38;4993565;28;20136;-74
2023/05/29 01:51:46;;;;;;;6.43;2.80;;;12.50;99.90;;;11.33;100.00;97754.38;4995898;28;20594;-74
2023/05/29 01:54:13;;;;;;;5.35;3.13;;;12.50;99.90;;;11.33;100.00;97757.81;5009365;28;20129;-75
2023/05/29 01:56:41;;;;;;;6.97;3.28;;;12.50;99.90;;;11.21;100.00;97753.13;4994735;28;20141;-74
2023/05/29 01:59:10;;;;;;;7.32;3.35;;;12.50;99.90;;;11.28;100.00;97752.81;4990643;28;20057;-74
2023/05/29 02:01:39;;;;;;;7.55;3.38;;;12.50;99.90;;;11.16;100.00;97752.50;4955007;28;20691;-74
2023/05/29 02:04:07;;;;;;;6.38;2.95;;;12.40;99.90;;;11.12;100.00;97754.38;4988940;28;20092;-74
2023/05/29 02:06:35;;;;;;;6.60;2.90;;;12.30;99.90;;;11.13;100.00;97755.19;5005983;28;20049;-74
2023/05/29 02:09:03;;;;;;;7.82;3.22;;;12.30;99.90;;;11.15;100.00;97743.81;5023296;28;20081;-73
2023/05/29 02:11:30;;;;;;;6.13;2.95;;;12.30;99.90;;;11.06;100.00;97747.69;5014414;28;20101;-74
2023/05/29 02:13:57;;;;;;;9.07;3.45;;;12.40;99.90;;;10.99;100.00;97747.97;4992133;28;20052;-74
2023/05/29 02:16:27;;;;;;;5.43;2.72;;;12.30;99.90;;;10.79;100.00;97756.63;4994326;28;20056;-74
2023/05/29 02:18:54;;;;;;;6.78;3.58;;;12.20;99.90;;;10.82;100.00;97753.88;5012183;28;20046;-74
2023/05/29 02:21:21;;;;;;;8.80;3.30;;;12.10;99.90;;;10.84;100.00;97752.06;5016142;28;20048;-74
2023/05/29 02:23:49;;;;;;;6.93;2.97;;;12.10;99.90;;;10.89;100.00;97752.72;4989162;28;20075;-73
2023/05/29 02:26:19;;;;;;;6.55;3.20;;;12.00;99.90;;;10.80;100.00;97753.09;4990347;28;20058;-74
2023/05/29 02:28:47;;;;;;;7.53;3.17;;;12.00;99.90;;;10.86;100.00;97758.06;5008057;28;20069;-74
2023/05/29 02:31:14;;;;;;;5.85;2.80;;;12.00;99.90;;;10.75;100.00;97761.06;4993046;28;20054;-74
2023/05/29 02:33:42;;;;;;;8.75;3.13;;;12.00;99.90;;;10.68;100.00;97754.44;5008959;28;20053;-74
2023/05/29 02:36:11;;;;;;;8.95;2.83;;;12.00;99.90;;;10.67;100.00;97750.13;4988837;28;20096;-73
2023/05/29 02:38:38;;;;;;;8.50;3.47;;;11.90;99.90;;;10.74;100.00;97749.00;5003152;28;20050;-74
2023/05/29 02:41:06;;;;;;;6.13;3.22;;;11.90;99.90;;;10.74;100.00;97742.94;5010651;28;20463;-74
2023/05/29 02:43:33;;;;;;;6.80;3.30;;;11.90;99.90;;;10.39;100.00;97748.66;5006921;28;20046;-74
2023/05/29 02:46:01;;;;;;;8.35;3.22;;;11.80;99.90;;;10.46;100.00;97744.06;5006464;28;20149;-73
2023/05/29 02:48:29;;;;;;;6.35;3.50;;;11.70;99.90;;;10.41;100.00;97746.84;5004852;28;20415;-73
2023/05/29 02:50:56;;;;;;;7.78;3.10;;;11.70;99.90;;;10.29;100.00;97759.47;5007299;28;20050;-74
2023/05/29 02:53:23;;;;;;;6.90;3.28;;;11.70;99.90;;;10.22;100.00;97764.84;5009778;28;20766;-74
2023/05/29 02:55:53;;;;;;;9.48;3.85;;;11.60;99.90;;;10.36;100.00;97764.34;5005346;28;20045;-74
2023/05/29 02:58:20;;;;;;;7.10;3.63;;;11.50;99.90;;;10.42;100.00;97758.06;5011806;28;20436;-73
2023/05/29 03:00:48;;;;;;;7.65;3.50;;;11.60;99.90;;;10.52;100.00;97754.22;5002312;28;20050;-74
2023/05/29 03:03:15;;;;;;;7.28;3.55;;;11.60;99.90;;;10.45;100.00;97763.97;5008360;28;20779;-74
2023/05/29 03:05:42;;;;;;;7.57;3.38;;;11.60;99.90;;;10.32;100.00;97760.16;5005356;28;20483;-73
2023/05/29 03:08:10;;;;;;;10.50;3.65;;;11.60;99.90;;;10.16;100.00;97769.41;4988843;28;20128;-74
2023/05/29 03:10:37;;;;;;;5.90;2.85;;;11.50;99.90;;;10.22;100.00;97766.59;5003878;28;20125;-74
2023/05/29 03:13:04;;;;;;;7.25;3.25;;;11.40;99.90;;;10.25;100.00;97764.72;4990686;28;20078;-74
2023/05/29 03:15:32;;;;;;;6.38;3.38;;;11.40;99.90;;;10.18;100.00;97770.19;5007764;28;20198;-75
2023/05/29 03:17:59;;;;;;;6.00;3.30;;;11.40;99.90;;;10.13;100.00;97770.38;5008648;28;20104;-74
2023/05/29 03:20:28;;;;;;;7.85;3.83;;;11.40;99.90;;;10.20;100.00;97764.06;5007073;28;20073;-74
2023/05/29 03:22:56;;;;;;;5.55;3.25;;;11.40;99.90;;;10.20;100.00;97761.47;5007783;28;20053;-73
2023/05/29 03:25:23;;;;;;;5.95;3.50;;;11.40;99.90;;;10.18;100.00;97763.25;5009322;28;20076;-73
2023/05/29 03:27:50;;;;;;;6.07;3.33;;;11.40;99.90;;;10.12;100.00;97757.47;4977643;28;20049;-74
2023/05/29 03:30:19;;;;;;;7.38;3.70;;;11.40;99.90;;;10.13;100.00;97765.19;5008480;28;20084;-73
2023/05/29 03:32:46;;;;;;;7.20;3.22;;;11.30;99.90;;;10.08;100.00;97761.06;5005702;28;20082;-73
2023/05/29 03:35:13;;;;;;;6.78;3.30;;;11.30;99.90;;;10.13;100.00;97765.19;5006209;28;20052;-74
2023/05/29 03:37:40;;;;;;;6.60;3.25;;;11.30;99.90;;;10.10;100.00;97767.88;4989176;28;20061;-74
2023/05/29 03:40:09;;;;;;;7.30;3.10;;;11.30;99.90;;;9.96;100.00;97772.75;5006420;28;20743;-73
2023/05/29 03:42:35;;;;;;;7.20;3.53;;;11.20;99.90;;;9.91;100.00;97785.88;4986795;28;20155;-73
2023/05/29 03:45:03;;;;;;;7.13;3.60;;;11.20;99.90;;;9.99;100.00;97786.47;5001503;28;20055;-75
2023/05/29 03:47:30;;;;;;;6.68;3.58;;;11.20;99.90;;;10.00;100.00;97779.50;5005244;28;20081;-73
2023/05/29 03:49:57;;;;;;;6.93;3.83;;;11.20;99.90;;;10.01;100.00;97783.78;5006748;28;20059;-73
2023/05/29 03:52:24;;;;;;;7.13;3.63;;;11.20;99.90;;;9.91;100.00;97782.44;5007426;28;20132;-74
2023/05/29 03:54:55;;;;;;;8.77;3.42;;;11.20;99.90;;;9.79;100.00;97792.38;5001016;28;20072;-74
2023/05/29 03:57:22;;;;;;;8.40;3.70;;;11.10;99.90;;;9.88;100.00;97800.72;4993661;28;20045;-74
2023/05/29 03:59:49;;;;;;;5.88;3.03;;;11.10;99.90;;;10.05;100.00;97806.13;4983700;28;20092;-74
2023/05/29 04:02:16;;;;;;;5.93;3.40;;;11.10;99.90;;;10.05;100.00;97806.97;4991663;28;20136;-74
2023/05/29 04:04:46;;;;;;;6.35;3.53;;;11.10;99.90;;;10.13;100.00;97806.69;4984224;28;20077;-74
2023/05/29 04:07:13;;;;;;;7.03;3.53;;;11.20;99.90;;;10.20;100.00;97808.16;4990943;28;20058;-73
2023/05/29 04:09:41;;;;;;;9.15;3.45;;;11.30;99.90;;;10.08;100.00;97808.63;5009852;28;20137;-73
2023/05/29 04:12:08;;;;;;;7.55;3.53;;;11.20;99.90;;;9.95;100.00;97820.34;5006305;28;20046;-73
2023/05/29 04:14:36;;;;;;;8.32;3.42;;;11.20;99.90;;;10.00;100.00;97819.25;4988627;28;20078;-75
2023/05/29 04:17:03;;;;;;;8.20;3.85;;;11.20;99.90;;;10.20;100.00;97820.28;5018732;28;20052;-75
2023/05/29 04:19:30;;;;;;;7.00;3.10;;;11.20;99.90;;;10.31;100.00;97827.69;4992445;28;20479;-73
2023/05/29 04:21:57;;;;;;;7.03;3.13;;;11.20;99.90;;;10.39;100.00;97823.06;4994193;28;20046;-73
2023/05/29 04:24:24;;;;;;;7.07;3.50;;;11.40;99.90;;;10.52;100.00;97829.47;5005166;28;20046;-74
2023/05/29 04:26:52;;;;;;;5.85;3.58;;;11.50;99.90;;;10.57;100.00;97831.88;5012286;28;20053;-74
2023/05/29 04:29:19;;;;;;;7.55;3.92;;;11.60;99.90;;;10.66;100.00;97824.59;5009771;28;20430;-74
2023/05/29 04:31:51;;;;;;;7.93;3.50;;;11.60;99.90;;;10.61;100.00;97828.28;5011625;28;20089;-73
2023/05/29 04:34:19;;;;;;;7.07;3.15;;;11.60;99.90;;;10.73;100.00;97830.38;4991783;28;20061;-74
2023/05/29 04:36:47;;;;;;;7.28;3.28;;;11.70;99.90;;;10.82;100.00;97832.63;4993088;28;20129;-74
2023/05/29 04:39:14;;;;;;;10.38;3.53;;;11.70;99.90;;;10.93;100.00;97832.19;4989607;28;20054;-74
2023/05/29 04:41:42;;;;;;;7.82;3.90;;;11.80;99.90;;;11.08;100.00;97839.38;4996625;28;20045;-74
2023/05/29 04:44:11;;;;;;;7.82;3.58;;;11.90;99.90;;;11.08;100.00;97831.59;4988809;28;20053;-74
2023/05/29 04:46:38;;;;;;;6.15;3.30;;;12.00;99.90;;;11.09;100.00;97833.28;5003720;28;20068;-74
2023/05/29 04:49:05;;;;;;;5.88;3.30;;;12.00;99.90;;;11.10;100.00;97845.34;5004749;28;20621;-73
2023/05/29 04:51:33;;;;;;;8.85;3.63;;;12.10;99.90;;;11.29;100.00;97842.84;5010314;28;20127;-73
2023/05/29 04:54:01;;;;;;;10.60;3.17;;;12.20;99.90;;;11.64;100.00;97835.31;5006261;28;20114;-74
2023/05/29 04:56:28;;;;;;;8.13;3.60;;;12.30;99.90;;;11.80;100.00;97832.06;5008270;28;20499;-74
2023/05/29 04:58:55;;;;;;;7.03;3.65;;;12.40;99.90;;;12.00;100.00;97828.63;4999300;28;20128;-74
2023/05/29 05:01:23;;;;;;;7.05;2.88;;;12.60;99.90;;;12.13;100.00;97828.03;5004575;28;20107;-74
2023/05/29 05:03:55;;;;;;;7.93;3.92;;;12.80;99.90;;;12.33;100.00;97829.69;5004707;28;20058;-75
2023/05/29 05:06:22;;;;;;;9.30;3.57;;;13.00;99.90;;;12.56;100.00;97822.59;4989202;28;20053;-74
2023/05/29 05:08:50;;;;;;;7.78;3.58;;;13.20;99.90;;;12.73;100.00;97811.41;5005835;28;21498;-74
2023/05/29 05:11:18;;;;;;;7.22;3.08;;;13.40;99.90;;;12.85;100.00;97813.41;4991036;28;20052;-74
2023/05/29 05:13:45;;;;;;;9.27;3.42;;;13.50;99.90;;;12.98;100.00;97814.50;5005777;28;20422;-75
2023/05/29 05:16:13;;;;;;;9.00;3.45;;;13.60;99.90;;;13.11;100.00;97819.97;4988014;28;20087;-74
2023/05/29 05:18:40;;;;;;;6.75;3.05;;;13.80;99.90;;;13.18;100.00;97818.75;5005027;28;20073;-74
2023/05/29 05:21:07;;;;;;;6.45;3.20;;;13.90;99.90;;;13.32;100.00;97828.53;5006439;28;20096;-74
2023/05/29 05:23:34;;;;;;;7.20;2.95;;;14.00;99.90;;;13.47;100.00;97820.84;4988446;28;20100;-75
2023/05/29 05:26:22;;;;;;;8.23;3.20;;;14.20;99.90;;;13.64;100.00;97819.97;4987858;28;20091;-74
2023/05/29 05:28:49;;;;;;;7.88;3.10;;;14.20;99.90;;;13.78;100.00;97823.59;5006605;28;20041;-74
2023/05/29 05:31:16;;;;;;;7.40;2.90;;;14.40;99.90;;;13.95;100.00;97821.84;5002742;28;20069;-75
2023/05/29 05:33:43;;;;;;;7.55;3.08;;;14.60;99.90;;;14.06;100.00;97824.75;4989549;28;20050;-75
2023/05/29 05:36:11;;;;;;;5.35;2.90;;;14.70;99.90;;;14.19;100.00;97820.56;5005176;28;20112;-74
2023/05/29 05:38:38;;;;;;;6.80;3.28;;;14.80;99.90;;;14.28;100.00;97818.38;4986365;28;20128;-74
2023/05/29 05:41:05;;;;;;;6.57;3.03;;;14.90;99.90;;;14.36;100.00;97814.44;4998131;28;20493;-74
2023/05/29 05:43:33;;;;;;;7.25;3.15;;;14.90;99.90;;;14.57;100.00;97815.09;4999687;28;20191;-74
2023/05/29 05:46:00;;;;;;;8.30;3.25;;;15.10;99.90;;;14.67;100.00;97807.56;4994310;28;20074;-74
2023/05/29 05:48:27;;;;;;;11.75;3.10;;;15.20;99.90;;;14.60;100.00;97812.28;5001467;28;20053;-74
2023/05/29 05:50:54;;;;;;;7.03;2.92;;;15.30;99.90;;;14.61;100.00;97816.56;4971531;28;20131;-74
2023/05/29 05:53:22;;;;;;;8.88;3.42;;;15.30;99.90;;;14.63;100.00;97822.56;4982619;28;20057;-74
2023/05/29 05:55:49;;;;;;;7.05;3.03;;;15.30;99.90;;;14.79;100.00;97821.72;5007121;28;20050;-74
2023/05/29 05:58:17;;;;;;;6.93;3.08;;;15.50;99.90;;;15.02;100.00;97818.66;4994379;28;20125;-74
2023/05/29 06:00:44;;;;;;;6.10;2.70;;;15.60;99.90;;;15.03;100.00;97827.34;5004379;28;20057;-74
2023/05/29 06:03:11;;;;;;;7.15;2.88;;;15.70;99.90;;;15.10;100.00;97826.06;5005301;28;20061;-74
2023/05/29 06:05:40;;;;;;;6.95;3.30;;;15.70;99.90;;;15.11;100.00;97825.13;4989033;28;20128;-74
2023/05/29 06:08:08;;;;;;;5.57;2.92;;;15.80;99.90;;;15.19;100.00;97822.94;5006710;28;20475;-75
2023/05/29 06:10:35;;;;;;;6.82;2.80;;;15.80;99.90;;;15.25;100.00;97825.19;4991650;28;20041;-74
2023/05/29 06:13:03;;;;;;;9.18;2.97;;;15.90;99.90;;;15.03;100.00;97827.34;4990335;28;20745;-76
2023/05/29 06:15:30;;;;;;;7.72;3.30;;;16.00;99.90;;;15.14;100.00;97830.19;5007293;28;20049;-75
2023/05/29 06:17:57;;;;;;;6.88;3.25;;;16.00;99.90;;;15.18;100.00;97830.84;5008311;28;20085;-74
2023/05/29 06:20:25;;;;;;;8.63;3.33;;;15.90;99.90;;;15.15;100.00;97836.28;5013085;28;20050;-74
2023/05/29 06:22:53;;;;;;;6.93;3.10;;;15.90;99.90;;;15.15;100.00;97838.88;4994315;28;20611;-74
2023/05/29 06:25:20;;;;;;;5.20;3.20;;;15.80;99.90;;;15.25;100.00;97842.66;4989230;28;20093;-75
2023/05/29 06:27:47;;;;;;;8.10;3.53;;;15.90;99.90;;;15.30;100.00;97834.53;5008512;28;20145;-74
2023/05/29 06:30:15;;;;;;;7.30;3.38;;;15.90;99.90;;;15.48;100.00;97833.47;4989040;28;20439;-74
2023/05/29 06:32:42;;;;;;;12.07;4.05;;;16.10;99.90;;;15.53;100.00;97836.69;4983469;28;20046;-74
2023/05/29 06:35:09;;;;;;;7.82;3.50;;;16.30;99.90;;;15.68;100.00;97842.78;4991044;28;20058;-74
2023/05/29 06:37:36;;;;;;;7.32;2.90;;;16.30;99.90;;;15.64;100.00;97847.31;5016700;28;20045;-74
2023/05/29 06:40:05;;;;;;;6.53;2.95;;;16.40;99.90;;;15.83;100.00;97848.91;4992257;28;20580;-74
2023/05/29 06:42:32;;;;;;;7.72;3.00;;;16.50;99.90;;;15.79;100.00;97847.41;4992045;28;20540;-74
2023/05/29 06:44:59;;;;;;;7.53;2.72;;;16.60;99.90;;;15.98;100.00;97839.28;4977110;28;20096;-74
2023/05/29 06:47:26;;;;;;;8.60;3.25;;;16.70;99.90;;;16.10;100.00;97844.63;5016786;28;20466;-74
2023/05/29 06:49:53;;;;;;;6.95;3.17;;;16.70;99.90;;;16.30;100.00;97847.78;5007017;28;20046;-74
2023/05/29 06:52:21;;;;;;;9.27;2.92;;;16.80;99.90;;;16.20;100.00;97834.44;5011216;28;20495;-74
2023/05/29 06:54:48;;;;;;;5.57;2.40;;;17.00;99.90;;;16.37;100.00;97841.25;4993030;28;20115;-74
2023/05/29 06:57:15;;;;;;;8.35;3.17;;;17.00;99.90;;;16.58;100.00;97844.31;4988575;28;20582;-74
2023/05/29 06:59:42;;;;;;;7.18;2.67;;;17.20;99.90;;;16.59;100.00;97848.63;4985552;28;20050;-73
2023/05/29 07:02:09;;;;;;;6.28;3.03;;;17.30;99.90;;;16.58;100.00;97843.47;4991494;28;20129;-73
2023/05/29 07:04:37;;;;;;;9.52;2.67;;;17.30;99.90;;;17.03;100.00;97838.88;4990973;28;20049;-74
2023/05/29 07:07:04;;;;;;;6.95;2.83;;;17.40;99.90;;;16.62;100.00;97835.31;5012178;28;20133;-75
2023/05/29 07:09:32;;;;;;;9.55;2.80;;;17.60;99.90;;;16.68;100.00;97842.78;4994016;28;20073;-74
2023/05/29 07:11:59;;;;;;;7.97;2.65;;;17.60;99.90;;;17.03;100.00;97842.34;5016257;28;20192;-75
2023/05/29 07:14:26;;;;;;;5.43;2.60;;;17.60;99.90;;;17.03;100.00;97844.97;5003058;28;20100;-75
2023/05/29 07:16:53;;;;;;;5.63;2.72;;;17.60;99.90;;;17.11;100.00;97836.63;4986893;28;20053;-74
2023/05/29 07:19:20;;;;;;;4.97;2.45;;;17.70;99.90;;;17.03;100.00;97838.88;4991675;28;20136;-75
2023/05/29 07:21:48;;;;;;;4.82;2.38;;;17.80;99.90;;;17.16;100.00;97837.16;5004614;28;20495;-74
2023/05/29 07:24:16;;;;;;;5.72;2.40;;;17.80;99.90;;;17.21;100.00;97837.69;4991151;28;20145;-75
2023/05/29 07:26:42;;;;;;;4.93;2.28;;;17.90;99.90;;;17.13;100.00;97837.38;4994613;28;20060;-74
2023/05/29 07:29:11;;;;;;;5.50;2.40;;;18.00;99.90;;;17.28;100.00;97840.75;5006915;28;20180;-74
2023/05/29 07:31:40;;;;;;;7.90;2.60;;;18.10;99.90;;;17.57;100.00;97836.22;4998330;28;20069;-75
2023/05/29 07:34:07;;;;;;;5.43;2.20;;;18.20;99.90;;;17.68;100.00;97836.34;4981742;28;20140;-74
2023/05/29 07:36:35;;;;;;;8.82;2.50;;;18.30;99.90;;;17.78;100.00;97826.88;5008412;28;20125;-75
2023/05/29 07:39:05;;;;;;;5.65;2.63;;;18.50;99.90;;;17.76;100.00;97836.63;4989902;28;20050;-76
2023/05/29 07:41:32;;;;;;;5.40;2.50;;;18.50;99.90;;;17.92;100.00;97838.25;5010966;28;20135;-75
2023/05/29 07:43:59;;;;;;;8.48;2.55;;;18.60;99.90;;;17.96;100.00;97832.69;4993070;28;20433;-75
2023/05/29 07:46:27;;;;;;;7.78;2.80;;;18.60;99.90;;;17.86;100.00;97834.28;5005029;28;20137;-75
2023/05/29 07:48:54;;;;;;;7.72;2.92;;;18.60;99.90;;;18.28;100.00;97834.03;4987670;28;20050;-75
2023/05/29 07:51:21;;;;;;;5.63;2.28;;;18.80;99.90;;;18.16;100.00;97833.94;5004911;28;20345;-74
2023/05/29 07:53:48;;;;;;;5.03;2.13;;;18.90;99.90;;;18.26;100.00;97849.91;5002660;28;20046;-75
2023/05/29 07:56:16;;;;;;;6.72;3.38;;;19.00;99.90;;;18.33;100.00;97842.44;4991719;28;20061;-75
2023/05/29 07:58:44;;;;;;;6.80;3.03;;;19.00;99.90;;;18.40;100.00;97838.44;5010077;28;20129;-74
2023/05/29 08:01:12;;;;;;;6.95;2.25;;;19.10;99.90;;;18.65;100.00;97834.06;5006572;28;20049;-75
2023/05/29 08:03:42;;;;;;;7.93;2.35;;;19.10;99.90;;;18.95;100.00;97841.56;4993706;28;20092;-74
2023/05/29 08:06:09;;;;;;;8.48;3.13;;;19.40;99.90;;;18.76;100.00;97839.41;4997421;28;20061;-74
2023/05/29 08:08:36;;;;;;;5.95;2.53;;;19.50;99.90;;;18.69;100.00;97835.53;4999187;28;20148;-74
2023/05/29 08:11:03;;;;;;;7.25;2.63;;;19.60;99.90;;;19.07;100.00;97831.94;5003751;28;20072;-75
2023/05/29 08:13:30;;;;;;;5.70;2.30;;;19.70;99.90;;;18.97;100.00;97850.19;4986531;28;20148;-75
2023/05/29 08:15:58;;;;;;;5.47;2.30;;;19.90;99.90;;;19.24;100.00;97844.72;4994472;28;20111;-75
2023/05/29 08:18:26;;;;;;;9.90;2.03;;;19.90;99.90;;;19.45;100.00;97839.63;4976187;28;20054;-74
2023/05/29 08:20:54;;;;;;;5.50;2.28;;;20.00;99.90;;;19.22;100.00;97836.91;4993507;28;20053;-75
2023/05/29 08:23:22;;;;;;;6.07;2.50;;;20.10;99.90;;;19.14;100.00;97841.91;4993781;28;20072;-75
2023/05/29 08:25:49;;;;;;;12.65;3.17;;;20.10;99.90;;;19.35;100.00;97833.41;5009757;28;20135;-74
2023/05/29 08:28:16;;;;;;;5.75;2.20;;;20.10;99.90;;;19.68;100.00;97839.72;4992417;28;20056;-75
2023/05/29 08:30:45;;;;;;;6.45;2.53;;;20.30;99.90;;;19.94;100.00;97846.50;4990703;28;20116;-75
2023/05/29 08:33:12;;;;;;;7.53;2.08;;;20.40;99.60;;;19.81;100.00;97841.34;5001631;28;20505;-75
2023/05/29 08:35:40;;;;;;;9.80;3.00;;;20.40;98.40;;;20.38;100.00;97841.38;4993062;28;20053;-75
2023/05/29 08:38:07;;;;;;;7.93;2.10;;;20.50;98.90;;;20.90;100.00;97839.91;5008685;28;20538;-75
2023/05/29 08:40:34;;;;;;;6.35;2.50;;;20.70;99.00;;;21.46;100.00;97829.19;4993436;28;20057;-74
2023/05/29 08:43:19;;;;;;;5.88;2.97;;;21.00;99.10;;;21.05;100.00;97837.81;5002471;28;20437;-75
2023/05/29 08:45:53;;;;;;;4.50;2.28;;;21.30;97.80;;;21.52;100.00;97831.31;4990236;28;20073;-74
2023/05/29 08:48:25;;;;;;;7.10;2.10;;;21.40;97.70;;;21.71;100.00;97827.13;5003803;28;20053;-75
2023/05/29 08:50:55;;;;;;;8.63;2.47;;;21.70;96.50;;;21.44;100.00;97833.75;4989191;28;20076;-75
2023/05/29 08:53:23;;;;;;;8.32;2.20;;;21.90;96.30;;;21.60;100.00;97833.31;4982374;28;20077;-75
2023/05/29 08:55:52;;;;;;;8.48;2.17;;;22.20;96.10;;;21.92;100.00;97825.31;4987811;28;20136;-75
2023/05/29 08:58:21;;;;;;;7.22;2.05;;;22.60;95.10;;;21.98;100.00;97825.75;4990862;28;20113;-75
2023/05/29 09:00:49;;;;;;;4.43;2.15;;;22.90;94.60;;;22.29;100.00;97824.00;4994536;28;20056;-75
2023/05/29 09:03:17;;;;;;;6.55;2.33;;;23.30;93.90;;;21.70;100.00;97833.38;4994914;28;20513;-75
2023/05/29 09:05:45;;;;;;;6.50;2.20;;;23.50;93.10;;;21.95;100.00;97833.97;4986602;28;20125;-75
2023/05/29 09:08:13;;;;;;;7.65;2.25;;;23.50;92.80;;;22.31;100.00;97843.22;5000233;28;20101;-75
2023/05/29 09:10:45;;;;;;;4.43;1.92;;;23.70;92.80;;;22.60;100.00;97834.53;4966236;28;20045;-75
2023/05/29 09:13:13;;;;;;;5.85;1.90;;;24.10;92.60;;;23.38;100.00;97836.38;4991654;28;20085;-76
2023/05/29 09:15:42;;;;;;;5.88;2.05;;;24.80;92.30;;;22.79;100.00;97831.97;5014129;28;20096;-75
2023/05/29 09:18:11;;;;;;;6.28;2.58;;;25.20;91.20;;;22.89;100.00;97835.44;5008447;28;20054;-76
2023/05/29 09:20:39;;;;;;;6.05;2.08;;;25.20;90.90;;;23.39;100.00;97829.25;4985667;28;20141;-75
2023/05/29 09:23:09;;;;;;;5.05;2.15;;;25.30;91.30;;;22.89;100.00;97837.25;5006477;28;20050;-75
2023/05/29 09:25:42;;;;;;;5.82;2.35;;;25.30;90.40;;;22.93;100.00;97836.03;4996118;28;20045;-75
2023/05/29 09:28:10;;;;;;;6.95;2.20;;;25.50;90.00;;;22.57;100.00;97830.34;5000298;28;20042;-74
2023/05/29 09:30:46;;;;;;;6.80;2.30;;;25.10;89.80;;;23.34;100.00;97834.97;4991699;28;20042;-75
2023/05/29 09:33:18;;;;;;;5.05;2.15;;;25.20;89.20;;;23.81;100.00;97836.91;4988080;28;20050;-75
2023/05/29 09:35:50;;;;;;;;;;;25.30;89.70;;;23.80;100.00;97843.19;4989216;28;20506;-75
2023/05/29 09:38:19;;;;;;;;;;;25.60;90.30;;;24.30;100.00;97834.97;4988541;28;20482;-76
2023/05/29 09:41:05;;;;;;;5.00;1.90;;;26.20;88.60;;;23.50;100.00;97844.19;4989067;28;19925;-75
2023/05/29 09:43:33;;;;;;;7.10;2.60;;;26.00;86.70;;;24.10;100.00;97842.16;4987732;28;20053;-76
2023/05/29 09:46:01;;;;;;;7.80;2.30;;;25.90;87.10;;;23.87;100.00;97843.47;5002494;28;20053;-76
2023/05/29 09:48:30;;;;;;;7.40;2.20;;;26.00;87.30;;;24.59;100.00;97842.00;5005473;28;20050;-75
2023/05/29 09:50:58;;;;;;;5.50;2.30;;;26.00;87.60;;;24.77;99.58;97842.03;4977094;28;20583;-76
2023/05/29 09:53:28;;;;;;;8.23;2.38;;;26.20;87.60;;;24.93;99.43;97842.22;4986958;28;20049;-75
2023/05/29 09:55:59;;;;;;;8.40;2.50;;;26.50;86.70;;;24.84;98.38;97843.13;4988945;28;20062;-75
2023/05/29 09:58:27;;;;;;;5.25;2.13;;;26.50;86.00;;;24.70;98.45;97836.50;4988987;28;20065;-75
2023/05/29 10:00:56;;;;;;;6.40;1.95;;;26.60;85.90;;;24.96;98.37;97843.75;5003960;28;20100;-76
2023/05/29 10:03:23;;;;;;;5.22;2.30;;;26.50;85.20;;;24.76;98.09;97838.53;4987094;28;20089;-76
2023/05/29 10:05:56;;;;;;;5.20;2.28;;;26.50;85.40;;;25.08;96.89;97839.88;4988263;28;20058;-76
2023/05/29 10:08:26;;;;;;;5.07;2.47;;;26.40;85.00;;;24.95;94.45;97839.41;4992611;28;20371;-76
2023/05/29 10:11:03;;;;;;;8.63;2.53;;;26.50;83.90;;;25.29;96.65;97831.66;4979522;28;20471;-76
2023/05/29 10:13:41;;;;;;;7.88;2.80;;;26.40;85.30;;;24.77;95.48;97842.03;4992943;28;20473;-75
2023/05/29 10:16:12;;;;;;;10.35;2.78;;;26.50;83.80;;;24.95;97.54;97832.31;4985915;28;20101;-76
2023/05/29 10:18:49;;;;;;;4.85;2.55;;;26.30;84.60;;;25.13;95.12;97820.84;4991484;28;20053;-76